METAR AND TAF INFORMATION
METAR FOR EPKK
ADDS - METARS form results

(0056 UTC 23 May 2018)
Data provider http://aviationweather.gov/adds/metars/
 
METAR text: EPKK 230030Z 04003KT 020V080 CAVOK 12/11 Q1017
Conditions at: EPKK (KRAKOW/BALICE , PL) observed 0030 UTC 23 May 2018
Temperature: 12.0°C (54°F)
Dewpoint: 11.0°C (52°F) [RH = 94%]
Pressure (altimeter): 30.03 inches Hg (1017.0 mb)
Winds: from the NE (40 degrees) at 3 MPH (3 knots; 1.6 m/s)
Visibility: 6 or more miles (10+ km)
Ceiling: ceiling and visibility are OK
Clouds: unknown
Weather: no significant weather observed at this time

METAR text: EPKK 230000Z VRB02KT CAVOK 13/10 Q1018
Conditions at: EPKK (KRAKOW/BALICE , PL) observed 0000 UTC 23 May 2018
Temperature: 13.0°C (55°F)
Dewpoint: 10.0°C (50°F) [RH = 82%]
Pressure (altimeter): 30.06 inches Hg (1018.0 mb)
Winds: variable direction winds at 2 MPH (2 knots; 1.0 m/s)
Visibility: 6 or more miles (10+ km)
Ceiling: ceiling and visibility are OK
Clouds: unknown
Weather: no significant weather observed at this time

Forecast for: EPKK (KRAKOW/BALICE , PL)
Text: TAF EPKK 222330Z 2300/2324 05004KT CAVOK
Forecast period: 0000 UTC 23 May 2018 to 0000 UTC 24 May 2018
Forecast type: FROM: standard forecast or significant change
Winds: from the NE (50 degrees) at 5 MPH (4 knots; 2.1 m/s)
Visibility: 6 or more miles (10+ km)
Clouds: not forecast
Weather: NSW  (no significant weather)
Forecast for: EPKK (KRAKOW/BALICE , PL)
Text: TAF EPKK 222330Z 2300/2324 05004KT CAVOK
Forecast period: 0000 UTC 23 May 2018 to 0000 UTC 24 May 2018
Forecast type: FROM: standard forecast or significant change
Winds: from the NE (50 degrees) at 5 MPH (4 knots; 2.1 m/s)
Visibility: 6 or more miles (10+ km)
Clouds: not forecast
Weather: NSW  (no significant weather)
Forecast for: EPKK (KRAKOW/BALICE , PL)
Text: TAF EPKK 222330Z 2300/2324 05004KT CAVOK
Forecast period: 0000 to 0600 UTC 23 May 2018
Forecast type: TEMPORARY: The following changes expected for less than half the time period
Visibility: 2.49 miles (4.01 km)
Ceiling: 4000 feet AGL
Clouds: broken clouds at 4000 feet AGL
Weather: SHRA  (rain showers)
Forecast for: EPKK (KRAKOW/BALICE , PL)
Text: TAF EPKK 222330Z 2300/2324 05004KT CAVOK
Forecast period: 0000 to 0600 UTC 23 May 2018
Forecast type: TEMPORARY: The following changes expected for less than half the time period
Visibility: 2.49 miles (4.01 km)
Ceiling: 4000 feet AGL
Clouds: broken clouds at 4000 feet AGL
Weather: SHRA  (rain showers)
Forecast for: EPKK (KRAKOW/BALICE , PL)
Text: TAF EPKK 222330Z 2300/2324 05004KT CAVOK
Forecast period: 0000 to 0600 UTC 23 May 2018
Forecast type: TEMPORARY: The following changes expected for less than half the time period
Winds: variable direction winds at 17 MPH (15 knots; 7.8 m/s)
gusting to 29 MPH (25 knots; 13.0 m/s)
Weather: TSRA  (rain associated with thunderstorm(s))
Forecast for: EPKK (KRAKOW/BALICE , PL)
Text: TAF EPKK 222330Z 2300/2324 05004KT CAVOK
Forecast period: 0000 to 0600 UTC 23 May 2018
Forecast type: TEMPORARY: The following changes expected for less than half the time period
Winds: variable direction winds at 17 MPH (15 knots; 7.8 m/s)
gusting to 29 MPH (25 knots; 13.0 m/s)
Weather: TSRA  (rain associated with thunderstorm(s))
Forecast for: EPKK (KRAKOW/BALICE , PL)
Text: TAF EPKK 222330Z 2300/2324 05004KT CAVOK
Forecast period: 1000 UTC 23 May 2018 to 0000 UTC 24 May 2018
Forecast type: TEMPORARY: The following changes expected for less than half the time period
Winds: variable direction winds at 23 MPH (20 knots; 10.4 m/s)
gusting to 34 MPH (30 knots; 15.6 m/s)
Visibility: 2.49 miles (4.01 km)
Ceiling: 4000 feet AGL
Clouds: broken clouds at 4000 feet AGL
Weather: TSRA  (rain associated with thunderstorm(s))
Forecast for: EPKK (KRAKOW/BALICE , PL)
Text: TAF EPKK 222330Z 2300/2324 05004KT CAVOK
Forecast period: 1000 UTC 23 May 2018 to 0000 UTC 24 May 2018
Forecast type: TEMPORARY: The following changes expected for less than half the time period
Winds: variable direction winds at 23 MPH (20 knots; 10.4 m/s)
gusting to 34 MPH (30 knots; 15.6 m/s)
Visibility: 2.49 miles (4.01 km)
Ceiling: 4000 feet AGL
Clouds: broken clouds at 4000 feet AGL
Weather: TSRA  (rain associated with thunderstorm(s))

 AIRPORT MAP

 RUNWAY INFORMATION
Runway 07 Runway length 8366 ft Runway width 197 ft
Runway elevation 792 ft Runway displaced threshold 0 ft Runway heading 78
Runway 25 Runway length 8366 ft Runway width 197 ft
Runway elevation 779 ft Runway displaced threshold 784 ft Runway heading 258

 AIRPORT FREQUENCIES
Type APP Name KRAKOW APP Frequency 121.075 MHZ
Type ATIS Name ATIS Frequency 126.125 MHZ
Type DIR Name KRAKOW DIR Frequency 123.8 MHZ
Type TWR Name KRAKOW DEL Frequency 118.1 MHZ
Type TWR Name KRAKOW TWR Frequency 123.25 MHZ

 AIRPORT NEAR NAVIGATION AIDS
Type NDB Name Krakow Frequency 353 KHZ



Powered by Virtual Airlines Manager [v2.6.1]